Milo, Maine
Current Conditions -  °F | °C
As of 6:53 AM on Friday 21 Nov 2014 (Local Time) from KMLT Reporting Station
Scattered Clouds Scattered Clouds  
Wind Chill: 13°   Ceiling: Unl
Heat Index: 23°   Visibility: 10mi
Dew Point: 14°   Wind: 9mph
Humidity: 68%   Direction: 270°W
Pressure: 29.8"   Gusts: NA
Location:  45.25°N, 68.98°W
Report Text: KMLT 211153Z AUTO 27008KT 10SM SCT035 M05/M10 A2980 RMK AO2 SLP103 T10501100 11050 21100 53017
Loading
Personal Weather Stations






























Interactive Weather Map New forecast layout! Learn more

10-Day Weather Forecast

Advertisements
Track Severe Weather on mobile